メインページ
METAR-TAF:

METAR-TAF

空港 :

ナッソー, バハマ

リンデン・ピンドリング国際空港

緯度: 25-03N, 経度: 077-28W, 海抜: 3m

現時点の気象観測

当レポートは32分前の16:00(UTC)に作成
北/北西の風 8kt、北西から北/北東の間で変化する
気温 29°C
湿度 66%
気圧
視程10km以上
高度2000ftの雲はほとんどない

METAR: MYNN 221600Z 34008KT 310V020 9999 FEW020 29/22 A995

時間: 11:32 (16:32 UTC)

予報

当レポートは11時間17分前の05:15(UTC)に作成
予報は22日の 06時(UTC)から 23日の 06時(UTC)まで有効
の風 kt
視程10km以上
高度2000ftの雲はほとんどない
高度20000ftの雲は散在している
22日の 18時(UTC)から 22日の 20時(UTC)まで徐々に
北/北東の風 8kt
高度2000ftの雲は散在している

TAF: MYNN 220515Z 2206/2306 00000KT 9999 FEW020 SCT200 BECMG 2218/2220 02008KT SCT020

4,000以上の空港の気象観測と天気予報(METAR報とTAF報)

利用可能な観測所は地図上に黄色い丸と赤い丸で示す。

丸の上にカーソルを重ねると観測所名を参照できる。

次にクリックすると気象観測と天気予報を参照できる。

マップの切り替え:黒色「×」印の緑ボタンをクリックして拡大、「-」印の緑ボタンをクリックして縮小、緑色の三角印をクリックして隣りの地図に切り替え


METAR-TAF: